sensor_id;sensor_type;location;lat;lon;timestamp;pressure;altitude;pressure_sealevel;temperature;humidity
61119;BME280;51448;51.660;5.824;2023-08-12T00:00:24;101683.06;;;21.34;100.00
61119;BME280;51448;51.660;5.824;2023-08-12T00:02:52;101685.81;;;21.33;100.00
61119;BME280;51448;51.660;5.824;2023-08-12T00:05:20;101680.38;;;21.34;100.00
61119;BME280;51448;51.660;5.824;2023-08-12T00:07:48;101672.44;;;21.33;100.00
61119;BME280;51448;51.660;5.824;2023-08-12T00:10:15;101677.78;;;21.33;100.00
61119;BME280;51448;51.660;5.824;2023-08-12T00:12:43;101676.00;;;21.33;100.00
61119;BME280;51448;51.660;5.824;2023-08-12T00:15:11;101677.78;;;21.33;100.00
61119;BME280;51448;51.660;5.824;2023-08-12T00:17:39;101674.25;;;21.32;100.00
61119;BME280;51448;51.660;5.824;2023-08-12T00:20:10;101670.75;;;21.32;100.00
61119;BME280;51448;51.660;5.824;2023-08-12T00:22:39;101672.56;;;21.31;100.00
61119;BME280;51448;51.660;5.824;2023-08-12T00:25:07;101670.75;;;21.32;100.00
61119;BME280;51448;51.660;5.824;2023-08-12T00:27:35;101662.78;;;21.30;100.00
61119;BME280;51448;51.660;5.824;2023-08-12T00:30:05;101660.97;;;21.30;100.00
61119;BME280;51448;51.660;5.824;2023-08-12T00:32:33;101675.31;;;21.29;100.00
61119;BME280;51448;51.660;5.824;2023-08-12T00:35:01;101669.13;;;21.29;100.00
61119;BME280;51448;51.660;5.824;2023-08-12T00:37:30;101660.13;;;21.30;100.00
61119;BME280;51448;51.660;5.824;2023-08-12T00:39:57;101666.31;;;21.30;100.00
61119;BME280;51448;51.660;5.824;2023-08-12T00:42:26;101664.41;;;21.33;100.00
61119;BME280;51448;51.660;5.824;2023-08-12T00:44:53;101665.31;;;21.33;100.00
61119;BME280;51448;51.660;5.824;2023-08-12T00:47:21;101654.47;;;21.35;100.00
61119;BME280;51448;51.660;5.824;2023-08-12T00:49:49;101647.44;;;21.34;100.00
61119;BME280;51448;51.660;5.824;2023-08-12T00:52:17;101649.25;;;21.33;100.00
61119;BME280;51448;51.660;5.824;2023-08-12T00:54:46;101643.22;;;21.29;100.00
61119;BME280;51448;51.660;5.824;2023-08-12T00:57:14;101634.41;;;21.27;100.00
61119;BME280;51448;51.660;5.824;2023-08-12T00:59:43;101631.91;;;21.24;100.00
61119;BME280;51448;51.660;5.824;2023-08-12T01:02:12;101635.72;;;21.20;100.00
61119;BME280;51448;51.660;5.824;2023-08-12T01:04:40;101630.50;;;21.19;100.00
61119;BME280;51448;51.660;5.824;2023-08-12T01:07:08;101630.56;;;21.17;100.00
61119;BME280;51448;51.660;5.824;2023-08-12T01:09:36;101621.00;;;21.13;100.00
61119;BME280;51448;51.660;5.824;2023-08-12T01:12:20;101621.94;;;21.12;100.00
61119;BME280;51448;51.660;5.824;2023-08-12T01:17:44;101614.97;;;21.09;100.00
61119;BME280;51448;51.660;5.824;2023-08-12T01:20:14;101622.16;;;21.09;100.00
61119;BME280;51448;51.660;5.824;2023-08-12T01:22:44;101620.25;;;21.11;100.00
61119;BME280;51448;51.660;5.824;2023-08-12T01:25:11;101617.56;;;21.11;100.00
61119;BME280;51448;51.660;5.824;2023-08-12T01:27:39;101619.28;;;21.12;100.00
61119;BME280;51448;51.660;5.824;2023-08-12T01:30:07;101612.22;;;21.11;100.00
61119;BME280;51448;51.660;5.824;2023-08-12T01:35:47;101594.63;;;21.07;100.00
61119;BME280;51448;51.660;5.824;2023-08-12T01:38:22;101594.81;;;21.04;100.00
61119;BME280;51448;51.660;5.824;2023-08-12T01:40:54;101585.84;;;21.05;100.00
61119;BME280;51448;51.660;5.824;2023-08-12T01:43:23;101585.00;;;21.04;100.00
61119;BME280;51448;51.660;5.824;2023-08-12T01:45:51;101586.69;;;21.05;100.00
61119;BME280;51448;51.660;5.824;2023-08-12T01:48:19;101578.75;;;21.04;100.00
61119;BME280;51448;51.660;5.824;2023-08-12T01:50:50;101582.41;;;21.03;100.00
61119;BME280;51448;51.660;5.824;2023-08-12T01:53:17;101573.53;;;21.02;100.00
61119;BME280;51448;51.660;5.824;2023-08-12T01:55:45;101577.06;;;21.03;100.00
61119;BME280;51448;51.660;5.824;2023-08-12T01:58:13;101569.88;;;21.03;100.00
61119;BME280;51448;51.660;5.824;2023-08-12T02:00:40;101568.19;;;21.02;100.00
61119;BME280;51448;51.660;5.824;2023-08-12T02:03:08;101565.50;;;21.02;100.00
61119;BME280;51448;51.660;5.824;2023-08-12T02:05:36;101568.25;;;21.01;100.00
61119;BME280;51448;51.660;5.824;2023-08-12T02:08:04;101570.84;;;21.02;100.00
61119;BME280;51448;51.660;5.824;2023-08-12T02:10:35;101567.28;;;21.02;100.00
61119;BME280;51448;51.660;5.824;2023-08-12T02:13:03;101564.63;;;21.02;100.00
61119;BME280;51448;51.660;5.824;2023-08-12T02:15:31;101559.28;;;21.02;100.00
61119;BME280;51448;51.660;5.824;2023-08-12T02:17:58;101561.94;;;21.02;100.00
61119;BME280;51448;51.660;5.824;2023-08-12T02:20:27;101564.63;;;21.02;100.00
61119;BME280;51448;51.660;5.824;2023-08-12T02:22:54;101561.09;;;21.01;100.00
61119;BME280;51448;51.660;5.824;2023-08-12T02:25:22;101564.63;;;21.02;100.00
61119;BME280;51448;51.660;5.824;2023-08-12T02:27:49;101568.25;;;21.01;100.00
61119;BME280;51448;51.660;5.824;2023-08-12T02:30:17;101555.84;;;21.00;100.00
61119;BME280;51448;51.660;5.824;2023-08-12T02:32:45;101555.84;;;21.00;100.00
61119;BME280;51448;51.660;5.824;2023-08-12T02:35:17;101554.13;;;20.99;100.00
61119;BME280;51448;51.660;5.824;2023-08-12T02:37:47;101559.47;;;20.99;100.00
61119;BME280;51448;51.660;5.824;2023-08-12T02:40:16;101551.63;;;20.96;100.00
61119;BME280;51448;51.660;5.824;2023-08-12T02:42:44;101548.94;;;20.96;100.00
61119;BME280;51448;51.660;5.824;2023-08-12T02:45:12;101547.25;;;20.95;100.00
61119;BME280;51448;51.660;5.824;2023-08-12T02:47:39;101545.50;;;20.94;100.00
61119;BME280;51448;51.660;5.824;2023-08-12T02:50:07;101544.66;;;20.93;100.00
61119;BME280;51448;51.660;5.824;2023-08-12T02:52:35;101540.16;;;20.94;100.00
61119;BME280;51448;51.660;5.824;2023-08-12T02:55:03;101536.63;;;20.93;100.00
61119;BME280;51448;51.660;5.824;2023-08-12T02:57:31;101533.97;;;20.93;100.00
61119;BME280;51448;51.660;5.824;2023-08-12T02:59:58;101526.03;;;20.92;100.00
61119;BME280;51448;51.660;5.824;2023-08-12T03:02:26;101522.41;;;20.93;100.00
61119;BME280;51448;51.660;5.824;2023-08-12T03:04:54;101518.97;;;20.90;100.00
61119;BME280;51448;51.660;5.824;2023-08-12T03:07:21;101513.78;;;20.87;100.00
61119;BME280;51448;51.660;5.824;2023-08-12T03:09:49;101518.38;;;20.85;100.00
61119;BME280;51448;51.660;5.824;2023-08-12T03:12:16;101514.00;;;20.84;100.00
61119;BME280;51448;51.660;5.824;2023-08-12T03:14:44;101518.50;;;20.84;100.00
61119;BME280;51448;51.660;5.824;2023-08-12T03:17:12;101512.25;;;20.83;100.00
61119;BME280;51448;51.660;5.824;2023-08-12T03:19:41;101501.69;;;20.82;100.00
61119;BME280;51448;51.660;5.824;2023-08-12T03:22:09;101505.28;;;20.81;100.00
61119;BME280;51448;51.660;5.824;2023-08-12T03:24:39;101499.09;;;20.80;100.00
61119;BME280;51448;51.660;5.824;2023-08-12T03:27:06;101495.66;;;20.78;100.00
61119;BME280;51448;51.660;5.824;2023-08-12T03:29:34;101490.41;;;20.77;100.00
61119;BME280;51448;51.660;5.824;2023-08-12T03:32:02;101496.59;;;20.77;100.00
61119;BME280;51448;51.660;5.824;2023-08-12T03:34:30;101487.63;;;20.78;100.00
61119;BME280;51448;51.660;5.824;2023-08-12T03:36:58;101485.91;;;20.77;100.00
61119;BME280;51448;51.660;5.824;2023-08-12T03:39:27;101478.00;;;20.76;100.00
61119;BME280;51448;51.660;5.824;2023-08-12T03:41:55;101482.47;;;20.75;100.00
61119;BME280;51448;51.660;5.824;2023-08-12T03:44:22;101478.94;;;20.75;100.00
61119;BME280;51448;51.660;5.824;2023-08-12T03:46:51;101468.25;;;20.75;100.00
61119;BME280;51448;51.660;5.824;2023-08-12T03:49:19;101471.75;;;20.75;100.00
61119;BME280;51448;51.660;5.824;2023-08-12T03:51:49;101470.06;;;20.74;100.00
61119;BME280;51448;51.660;5.824;2023-08-12T03:54:17;101474.56;;;20.74;100.00
61119;BME280;51448;51.660;5.824;2023-08-12T03:56:45;101478.00;;;20.76;100.00
61119;BME280;51448;51.660;5.824;2023-08-12T03:59:16;101471.88;;;20.74;100.00
61119;BME280;51448;51.660;5.824;2023-08-12T04:01:43;101472.66;;;20.76;100.00
61119;BME280;51448;51.660;5.824;2023-08-12T04:04:11;101458.31;;;20.77;100.00
61119;BME280;51448;51.660;5.824;2023-08-12T04:06:41;101466.34;;;20.77;100.00
61119;BME280;51448;51.660;5.824;2023-08-12T04:09:08;101457.47;;;20.76;100.00
61119;BME280;51448;51.660;5.824;2023-08-12T04:11:36;101457.47;;;20.76;100.00
61119;BME280;51448;51.660;5.824;2023-08-12T04:14:04;101453.06;;;20.75;100.00
61119;BME280;51448;51.660;5.824;2023-08-12T04:16:31;101455.72;;;20.75;100.00
61119;BME280;51448;51.660;5.824;2023-08-12T04:18:59;101465.47;;;20.76;100.00
61119;BME280;51448;51.660;5.824;2023-08-12T04:21:28;101465.41;;;20.78;100.00
61119;BME280;51448;51.660;5.824;2023-08-12T04:23:55;101457.47;;;20.76;100.00
61119;BME280;51448;51.660;5.824;2023-08-12T04:26:23;101461.00;;;20.77;100.00
61119;BME280;51448;51.660;5.824;2023-08-12T04:28:52;101454.78;;;20.76;100.00
61119;BME280;51448;51.660;5.824;2023-08-12T04:31:20;101460.13;;;20.76;100.00
61119;BME280;51448;51.660;5.824;2023-08-12T04:33:49;101456.41;;;20.79;100.00
61119;BME280;51448;51.660;5.824;2023-08-12T04:36:22;101453.66;;;20.80;100.00
61119;BME280;51448;51.660;5.824;2023-08-12T04:38:50;101439.31;;;20.81;100.00
61119;BME280;51448;51.660;5.824;2023-08-12T04:41:18;101446.41;;;20.82;100.00
61119;BME280;51448;51.660;5.824;2023-08-12T04:43:46;101432.94;;;20.84;100.00
61119;BME280;51448;51.660;5.824;2023-08-12T04:46:13;101431.13;;;20.84;100.00
61119;BME280;51448;51.660;5.824;2023-08-12T04:48:41;101430.16;;;20.85;100.00
61119;BME280;51448;51.660;5.824;2023-08-12T04:51:09;101424.81;;;20.85;100.00
61119;BME280;51448;51.660;5.824;2023-08-12T04:53:37;101422.03;;;20.87;100.00
61119;BME280;51448;51.660;5.824;2023-08-12T04:56:05;101427.47;;;20.85;100.00
61119;BME280;51448;51.660;5.824;2023-08-12T04:58:34;101429.28;;;20.85;100.00
61119;BME280;51448;51.660;5.824;2023-08-12T05:01:02;101433.97;;;20.81;100.00
61119;BME280;51448;51.660;5.824;2023-08-12T05:03:30;101434.16;;;20.78;100.00
61119;BME280;51448;51.660;5.824;2023-08-12T05:05:59;101433.41;;;20.76;100.00
61119;BME280;51448;51.660;5.824;2023-08-12T05:08:27;101429.00;;;20.75;100.00
61119;BME280;51448;51.660;5.824;2023-08-12T05:10:55;101432.66;;;20.74;100.00
61119;BME280;51448;51.660;5.824;2023-08-12T05:13:23;101430.13;;;20.71;100.00
61119;BME280;51448;51.660;5.824;2023-08-12T05:15:51;101429.28;;;20.70;100.00
61119;BME280;51448;51.660;5.824;2023-08-12T05:18:21;101436.47;;;20.70;100.00
61119;BME280;51448;51.660;5.824;2023-08-12T05:20:53;101429.28;;;20.70;100.00
61119;BME280;51448;51.660;5.824;2023-08-12T05:23:22;101429.28;;;20.70;100.00
61119;BME280;51448;51.660;5.824;2023-08-12T05:25:49;101416.13;;;20.67;100.00
61119;BME280;51448;51.660;5.824;2023-08-12T05:28:21;101422.78;;;20.60;100.00
61119;BME280;51448;51.660;5.824;2023-08-12T05:30:48;101417.53;;;20.59;100.00
61119;BME280;51448;51.660;5.824;2023-08-12T05:33:16;101404.16;;;20.59;100.00
61119;BME280;51448;51.660;5.824;2023-08-12T05:35:47;101405.09;;;20.58;100.00
61119;BME280;51448;51.660;5.824;2023-08-12T05:38:15;101389.38;;;20.53;100.00
61119;BME280;51448;51.660;5.824;2023-08-12T05:40:43;101383.25;;;20.51;100.00
61119;BME280;51448;51.660;5.824;2023-08-12T05:43:10;101389.72;;;20.47;100.00
61119;BME280;51448;51.660;5.824;2023-08-12T05:45:38;101397.06;;;20.43;100.00
61119;BME280;51448;51.660;5.824;2023-08-12T05:48:05;101400.69;;;20.42;100.00
61119;BME280;51448;51.660;5.824;2023-08-12T05:50:35;101402.59;;;20.40;100.00
61119;BME280;51448;51.660;5.824;2023-08-12T05:53:02;101400.97;;;20.38;100.00
61119;BME280;51448;51.660;5.824;2023-08-12T05:55:33;101401.03;;;20.36;100.00
61119;BME280;51448;51.660;5.824;2023-08-12T05:58:02;101388.66;;;20.35;100.00
61119;BME280;51448;51.660;5.824;2023-08-12T06:00:29;101387.03;;;20.33;100.00
61119;BME280;51448;51.660;5.824;2023-08-12T06:02:57;101403.06;;;20.33;100.00
61119;BME280;51448;51.660;5.824;2023-08-12T06:05:24;101392.47;;;20.31;100.00
61119;BME280;51448;51.660;5.824;2023-08-12T06:07:52;101396.97;;;20.30;100.00
61119;BME280;51448;51.660;5.824;2023-08-12T06:10:19;101389.03;;;20.29;100.00
61119;BME280;51448;51.660;5.824;2023-08-12T06:12:47;101389.97;;;20.28;100.00
61119;BME280;51448;51.660;5.824;2023-08-12T06:15:14;101392.63;;;20.28;100.00
61119;BME280;51448;51.660;5.824;2023-08-12T06:17:42;101389.03;;;20.29;100.00
61119;BME280;51448;51.660;5.824;2023-08-12T06:20:10;101383.69;;;20.29;100.00
61119;BME280;51448;51.660;5.824;2023-08-12T06:22:38;101382.91;;;20.27;100.00
61119;BME280;51448;51.660;5.824;2023-08-12T06:25:06;101378.50;;;20.26;100.00
61119;BME280;51448;51.660;5.824;2023-08-12T06:27:34;101362.69;;;20.23;100.00
61119;BME280;51448;51.660;5.824;2023-08-12T06:30:01;101367.19;;;20.22;100.00
61119;BME280;51448;51.660;5.824;2023-08-12T06:32:29;101369.94;;;20.21;100.00
61119;BME280;51448;51.660;5.824;2023-08-12T06:34:56;101369.94;;;20.21;100.00
61119;BME280;51448;51.660;5.824;2023-08-12T06:37:24;101369.84;;;20.22;100.00
61119;BME280;51448;51.660;5.824;2023-08-12T06:39:51;101374.22;;;20.23;100.00
61119;BME280;51448;51.660;5.824;2023-08-12T06:42:19;101362.50;;;20.26;100.00
61119;BME280;51448;51.660;5.824;2023-08-12T06:44:54;101365.94;;;20.28;100.00
61119;BME280;51448;51.660;5.824;2023-08-12T06:47:23;101358.97;;;20.25;100.00
61119;BME280;51448;51.660;5.824;2023-08-12T06:49:51;101360.78;;;20.25;100.00
61119;BME280;51448;51.660;5.824;2023-08-12T06:52:18;101351.03;;;20.24;100.00
61119;BME280;51448;51.660;5.824;2023-08-12T06:54:46;101355.53;;;20.23;100.00
61119;BME280;51448;51.660;5.824;2023-08-12T06:57:13;101360.94;;;20.22;100.00
61119;BME280;51448;51.660;5.824;2023-08-12T06:59:41;101368.03;;;20.23;100.00
61119;BME280;51448;51.660;5.824;2023-08-12T07:02:08;101368.03;;;20.23;100.00
61119;BME280;51448;51.660;5.824;2023-08-12T07:04:36;101359.94;;;20.24;100.00
61119;BME280;51448;51.660;5.824;2023-08-12T07:07:04;101350.88;;;20.27;100.00
61119;BME280;51448;51.660;5.824;2023-08-12T07:09:31;101341.25;;;20.24;100.00
61119;BME280;51448;51.660;5.824;2023-08-12T07:11:59;101343.03;;;20.24;100.00
61119;BME280;51448;51.660;5.824;2023-08-12T07:14:28;101341.13;;;20.26;100.00
61119;BME280;51448;51.660;5.824;2023-08-12T07:16:57;101330.19;;;20.30;100.00
61119;BME280;51448;51.660;5.824;2023-08-12T07:19:24;101323.56;;;20.36;100.00
61119;BME280;51448;51.660;5.824;2023-08-12T07:21:52;101327.78;;;20.40;100.00
61119;BME280;51448;51.660;5.824;2023-08-12T07:24:19;101331.22;;;20.42;100.00
61119;BME280;51448;51.660;5.824;2023-08-12T07:26:46;101327.53;;;20.45;100.00
61119;BME280;51448;51.660;5.824;2023-08-12T07:29:14;101338.00;;;20.48;100.00
61119;BME280;51448;51.660;5.824;2023-08-12T07:31:42;101336.00;;;20.52;100.00
61119;BME280;51448;51.660;5.824;2023-08-12T07:34:09;101334.94;;;20.54;100.00
61119;BME280;51448;51.660;5.824;2023-08-12T07:36:40;101334.50;;;20.62;100.00
61119;BME280;51448;51.660;5.824;2023-08-12T07:39:08;101331.47;;;20.68;100.00
61119;BME280;51448;51.660;5.824;2023-08-12T07:41:35;101328.47;;;20.73;100.00
61119;BME280;51448;51.660;5.824;2023-08-12T07:44:04;101323.06;;;20.74;100.00
61119;BME280;51448;51.660;5.824;2023-08-12T07:46:32;101328.09;;;20.79;100.00
61119;BME280;51448;51.660;5.824;2023-08-12T07:48:59;101325.34;;;20.80;100.00
61119;BME280;51448;51.660;5.824;2023-08-12T07:51:27;101324.28;;;20.83;100.00
61119;BME280;51448;51.660;5.824;2023-08-12T07:53:54;101325.13;;;20.83;100.00
61119;BME280;51448;51.660;5.824;2023-08-12T07:56:22;101328.56;;;20.85;100.00
61119;BME280;51448;51.660;5.824;2023-08-12T07:58:49;101315.19;;;20.85;100.00
61119;BME280;51448;51.660;5.824;2023-08-12T08:01:17;101322.28;;;20.86;100.00
61119;BME280;51448;51.660;5.824;2023-08-12T08:03:44;101321.31;;;20.87;100.00
61119;BME280;51448;51.660;5.824;2023-08-12T08:06:12;101319.38;;;20.89;100.00
61119;BME280;51448;51.660;5.824;2023-08-12T08:08:39;101309.47;;;20.92;100.00
61119;BME280;51448;51.660;5.824;2023-08-12T08:11:07;101310.22;;;20.94;100.00
61119;BME280;51448;51.660;5.824;2023-08-12T08:13:34;101315.38;;;20.97;100.00
61119;BME280;51448;51.660;5.824;2023-08-12T08:16:02;101310.78;;;20.99;100.00
61119;BME280;51448;51.660;5.824;2023-08-12T08:18:29;101304.19;;;21.04;100.00
61119;BME280;51448;51.660;5.824;2023-08-12T08:20:57;101310.41;;;21.05;100.00
61119;BME280;51448;51.660;5.824;2023-08-12T08:23:31;101312.00;;;21.07;100.00
61119;BME280;51448;51.660;5.824;2023-08-12T08:25:58;101314.50;;;21.10;100.00
61119;BME280;51448;51.660;5.824;2023-08-12T08:28:26;101322.41;;;21.12;100.00
61119;BME280;51448;51.660;5.824;2023-08-12T08:30:53;101325.06;;;21.12;100.00
61119;BME280;51448;51.660;5.824;2023-08-12T08:33:21;101322.31;;;21.14;100.00
61119;BME280;51448;51.660;5.824;2023-08-12T08:35:48;101322.97;;;21.17;100.00
61119;BME280;51448;51.660;5.824;2023-08-12T08:38:16;101321.06;;;21.19;100.00
61119;BME280;51448;51.660;5.824;2023-08-12T08:40:44;101324.69;;;21.18;100.00
61119;BME280;51448;51.660;5.824;2023-08-12T08:43:13;101317.41;;;21.20;100.00
61119;BME280;51448;51.660;5.824;2023-08-12T08:45:46;101320.00;;;21.22;100.00
61119;BME280;51448;51.660;5.824;2023-08-12T08:48:14;101321.72;;;21.23;100.00
61119;BME280;51448;51.660;5.824;2023-08-12T08:50:42;101324.94;;;21.28;100.00
61119;BME280;51448;51.660;5.824;2023-08-12T08:53:14;101327.31;;;21.33;100.00
61119;BME280;51448;51.660;5.824;2023-08-12T08:55:44;101342.97;;;21.39;100.00
61119;BME280;51448;51.660;5.824;2023-08-12T08:58:12;101339.06;;;21.44;100.00
61119;BME280;51448;51.660;5.824;2023-08-12T09:00:47;101349.47;;;21.49;100.00
61119;BME280;51448;51.660;5.824;2023-08-12T09:03:15;101343.69;;;21.55;100.00
61119;BME280;51448;51.660;5.824;2023-08-12T09:05:44;101344.94;;;21.64;100.00
61119;BME280;51448;51.660;5.824;2023-08-12T09:08:11;101347.28;;;21.68;100.00
61119;BME280;51448;51.660;5.824;2023-08-12T09:10:40;101349.97;;;21.68;100.00
61119;BME280;51448;51.660;5.824;2023-08-12T09:13:08;101350.72;;;21.70;100.00
61119;BME280;51448;51.660;5.824;2023-08-12T09:15:36;101350.63;;;21.72;100.00
61119;BME280;51448;51.660;5.824;2023-08-12T09:18:07;101355.75;;;21.75;100.00
61119;BME280;51448;51.660;5.824;2023-08-12T09:20:35;101361.22;;;21.74;100.00
61119;BME280;51448;51.660;5.824;2023-08-12T09:23:02;101359.59;;;21.71;100.00
61119;BME280;51448;51.660;5.824;2023-08-12T09:25:30;101356.50;;;21.64;100.00
61119;BME280;51448;51.660;5.824;2023-08-12T09:27:59;101361.19;;;21.61;100.00
61119;BME280;51448;51.660;5.824;2023-08-12T09:30:30;101365.59;;;21.62;100.00
61119;BME280;51448;51.660;5.824;2023-08-12T09:33:02;101363.53;;;21.65;100.00
61119;BME280;51448;51.660;5.824;2023-08-12T09:35:36;101363.13;;;21.72;100.00
61119;BME280;51448;51.660;5.824;2023-08-12T09:38:07;101364.25;;;21.82;100.00
61119;BME280;51448;51.660;5.824;2023-08-12T09:40:39;101369.84;;;21.92;100.00
61119;BME280;51448;51.660;5.824;2023-08-12T09:43:08;101370.69;;;21.92;100.00
61119;BME280;51448;51.660;5.824;2023-08-12T09:45:39;101377.03;;;21.91;100.00
61119;BME280;51448;51.660;5.824;2023-08-12T09:48:07;101379.78;;;21.89;100.00
61119;BME280;51448;51.660;5.824;2023-08-12T09:50:37;101377.97;;;21.90;100.00
61119;BME280;51448;51.660;5.824;2023-08-12T09:53:05;101380.47;;;21.93;100.00
61119;BME280;51448;51.660;5.824;2023-08-12T09:55:34;101370.28;;;21.98;100.00
61119;BME280;51448;51.660;5.824;2023-08-12T09:58:05;101374.03;;;22.08;100.00
61119;BME280;51448;51.660;5.824;2023-08-12T10:00:35;101368.97;;;22.31;100.00
61119;BME280;51448;51.660;5.824;2023-08-12T10:03:03;101366.19;;;22.45;100.00
61119;BME280;51448;51.660;5.824;2023-08-12T10:05:33;101372.28;;;22.47;100.00
61119;BME280;51448;51.660;5.824;2023-08-12T10:08:02;101363.50;;;22.45;100.00
61119;BME280;51448;51.660;5.824;2023-08-12T10:10:32;101380.56;;;22.44;100.00
61119;BME280;51448;51.660;5.824;2023-08-12T10:13:02;101372.72;;;22.41;100.00
61119;BME280;51448;51.660;5.824;2023-08-12T10:15:34;101373.91;;;22.63;100.00
61119;BME280;51448;51.660;5.824;2023-08-12T10:18:04;101371.94;;;22.90;100.00
61119;BME280;51448;51.660;5.824;2023-08-12T10:20:38;101379.78;;;23.06;100.00
61119;BME280;51448;51.660;5.824;2023-08-12T10:23:07;101393.50;;;23.15;100.00
61119;BME280;51448;51.660;5.824;2023-08-12T10:25:37;101389.72;;;23.17;100.00
61119;BME280;51448;51.660;5.824;2023-08-12T10:28:07;101394.09;;;23.31;100.00
61119;BME280;51448;51.660;5.824;2023-08-12T10:30:35;101391.34;;;23.57;100.00
61119;BME280;51448;51.660;5.824;2023-08-12T10:33:03;101393.69;;;23.61;100.00
61119;BME280;51448;51.660;5.824;2023-08-12T10:35:44;101389.41;;;23.59;100.00
61119;BME280;51448;51.660;5.824;2023-08-12T10:38:17;101388.97;;;23.52;100.00
61119;BME280;51448;51.660;5.824;2023-08-12T10:40:46;101386.88;;;23.44;100.00
61119;BME280;51448;51.660;5.824;2023-08-12T10:43:14;101385.84;;;23.34;100.00
61119;BME280;51448;51.660;5.824;2023-08-12T10:45:51;101389.03;;;23.39;100.00
61119;BME280;51448;51.660;5.824;2023-08-12T10:48:24;101384.41;;;23.41;100.00
61119;BME280;51448;51.660;5.824;2023-08-12T10:50:54;101380.75;;;23.42;100.00
61119;BME280;51448;51.660;5.824;2023-08-12T10:53:26;101393.84;;;23.47;100.00
61119;BME280;51448;51.660;5.824;2023-08-12T10:56:01;101387.44;;;23.61;100.00
61119;BME280;51448;51.660;5.824;2023-08-12T10:58:47;101392.97;;;23.70;100.00
61119;BME280;51448;51.660;5.824;2023-08-12T11:01:18;101380.13;;;23.63;100.00
61119;BME280;51448;51.660;5.824;2023-08-12T11:03:48;101380.59;;;23.57;100.00
61119;BME280;51448;51.660;5.824;2023-08-12T11:06:19;101384.25;;;23.56;100.00
61119;BME280;51448;51.660;5.824;2023-08-12T11:08:47;101385.72;;;23.60;100.00
61119;BME280;51448;51.660;5.824;2023-08-12T11:11:21;101399.34;;;23.69;100.00
61119;BME280;51448;51.660;5.824;2023-08-12T11:13:53;101393.28;;;23.79;100.00
61119;BME280;51448;51.660;5.824;2023-08-12T11:16:35;101401.63;;;23.87;100.00
61119;BME280;51448;51.660;5.824;2023-08-12T11:19:04;101393.63;;;23.98;100.00
61119;BME280;51448;51.660;5.824;2023-08-12T11:21:35;101394.13;;;24.03;100.00
61119;BME280;51448;51.660;5.824;2023-08-12T11:24:04;101391.94;;;24.08;99.74
61119;BME280;51448;51.660;5.824;2023-08-12T11:26:31;101395.13;;;24.14;98.72
61119;BME280;51448;51.660;5.824;2023-08-12T11:28:59;101395.19;;;24.25;99.81
61119;BME280;51448;51.660;5.824;2023-08-12T11:31:26;101386.66;;;24.42;100.00
61119;BME280;51448;51.660;5.824;2023-08-12T11:33:54;101390.63;;;24.61;98.17
61119;BME280;51448;51.660;5.824;2023-08-12T11:36:22;101393.56;;;24.69;97.32
61119;BME280;51448;51.660;5.824;2023-08-12T11:38:49;101394.78;;;24.65;96.70
61119;BME280;51448;51.660;5.824;2023-08-12T11:41:18;101396.25;;;24.58;95.79
61119;BME280;51448;51.660;5.824;2023-08-12T11:43:45;101397.28;;;24.44;94.92
61119;BME280;51448;51.660;5.824;2023-08-12T11:46:15;101397.38;;;24.31;93.64
61119;BME280;51448;51.660;5.824;2023-08-12T11:48:43;101391.97;;;24.20;91.70
61119;BME280;51448;51.660;5.824;2023-08-12T11:51:11;101394.06;;;24.16;90.54
61119;BME280;51448;51.660;5.824;2023-08-12T11:53:39;101406.13;;;24.10;90.16
61119;BME280;51448;51.660;5.824;2023-08-12T11:56:07;101398.53;;;24.04;91.85
61119;BME280;51448;51.660;5.824;2023-08-12T11:58:38;101406.75;;;24.14;92.56
61119;BME280;51448;51.660;5.824;2023-08-12T12:01:21;101417.06;;;24.32;93.11
61119;BME280;51448;51.660;5.824;2023-08-12T12:03:53;101408.16;;;24.42;89.19
61119;BME280;51448;51.660;5.824;2023-08-12T12:06:36;101412.78;;;24.40;88.88
61119;BME280;51448;51.660;5.824;2023-08-12T12:09:06;101417.69;;;24.46;89.55
61119;BME280;51448;51.660;5.824;2023-08-12T12:11:37;101414.69;;;24.51;87.48
61119;BME280;51448;51.660;5.824;2023-08-12T12:14:08;101416.78;;;24.59;86.72
61119;BME280;51448;51.660;5.824;2023-08-12T12:16:43;101419.97;;;24.75;85.21
61119;BME280;51448;51.660;5.824;2023-08-12T12:19:19;101421.69;;;24.87;85.14
61119;BME280;51448;51.660;5.824;2023-08-12T12:21:50;101426.59;;;24.94;84.09
61119;BME280;51448;51.660;5.824;2023-08-12T12:24:19;101425.72;;;24.93;83.85
61119;BME280;51448;51.660;5.824;2023-08-12T12:26:47;101429.41;;;24.92;83.21
61119;BME280;51448;51.660;5.824;2023-08-12T12:29:16;101422.31;;;24.91;82.74
61119;BME280;51448;51.660;5.824;2023-08-12T12:31:43;101423.63;;;24.85;82.31
61119;BME280;51448;51.660;5.824;2023-08-12T12:34:11;101432.34;;;24.78;82.60
61119;BME280;51448;51.660;5.824;2023-08-12T12:36:39;101434.03;;;24.79;83.61
61119;BME280;51448;51.660;5.824;2023-08-12T12:39:07;101442.00;;;24.80;81.77
61119;BME280;51448;51.660;5.824;2023-08-12T12:41:35;101437.84;;;24.76;80.39
61119;BME280;51448;51.660;5.824;2023-08-12T12:44:02;101443.59;;;24.72;80.86
61119;BME280;51448;51.660;5.824;2023-08-12T12:46:30;101442.69;;;24.71;81.67
61119;BME280;51448;51.660;5.824;2023-08-12T12:48:58;101441.63;;;24.74;81.09
61119;BME280;51448;51.660;5.824;2023-08-12T12:51:25;101430.13;;;24.83;82.10
61119;BME280;51448;51.660;5.824;2023-08-12T12:53:53;101431.63;;;24.98;81.88